Time;durP1;ratioP1;P1;durP2;ratioP2;P2;SDS_P1;SDS_P2;PMS_P1;PMS_P2;Temp;Humidity;BMP_temperature;BMP_pressure;BME280_temperature;BME280_humidity;BME280_pressure;Samples;Min_cycle;Max_cycle;Signal;HPM_P1;HPM_P2
2023/08/10 00:01:46;;;;;;;11.50;8.00;;;;;;;10.30;99.62;99753.74;434344;1256;141124;-62
2023/08/10 00:11:52;;;;;;;9.40;8.50;;;;;;;10.26;99.05;99752.41;434529;1256;140295;-62
2023/08/10 00:21:58;;;;;;;10.10;8.30;;;;;;;10.25;99.85;99748.66;434299;1254;139923;-62
2023/08/10 00:32:04;;;;;;;11.20;9.10;;;;;;;10.30;100.00;99749.23;434840;1256;141329;-63
2023/08/10 00:42:10;;;;;;;12.40;10.30;;;;;;;10.42;100.00;99751.48;434328;1259;140264;-65
2023/08/10 00:52:17;;;;;;;10.00;9.00;;;;;;;10.60;100.00;99758.66;434021;1257;140707;-63
2023/08/10 01:02:23;;;;;;;24.40;13.30;;;;;;;10.74;100.00;99763.20;434466;1259;140797;-63
2023/08/10 01:12:36;;;;;;;17.30;11.40;;;;;;;10.86;100.00;99765.97;435415;1254;141302;-63
2023/08/10 01:22:51;;;;;;;14.00;12.50;;;;;;;10.96;100.00;99768.89;434467;1258;139505;-63
2023/08/10 01:32:57;;;;;;;12.70;11.50;;;;;;;10.99;100.00;99775.19;434012;1256;140806;-62
2023/08/10 01:43:03;;;;;;;15.20;10.90;;;;;;;11.01;100.00;99774.33;434770;1253;140840;-61
2023/08/10 01:53:13;;;;;;;13.30;11.60;;;;;;;11.00;100.00;99771.10;434805;1256;139359;-62
2023/08/10 02:03:19;;;;;;;10.60;9.60;;;;;;;10.95;100.00;99773.70;434741;1254;140844;-62
2023/08/10 02:13:25;;;;;;;11.10;10.00;;;;;;;10.84;100.00;99780.84;435075;1255;138988;-62
2023/08/10 02:23:31;;;;;;;11.40;10.20;;;;;;;10.69;100.00;99785.77;434415;1259;139416;-63
2023/08/10 02:33:37;;;;;;;10.70;9.60;;;;;;;10.53;100.00;99788.47;434509;1253;140364;-63
2023/08/10 02:43:43;;;;;;;10.70;9.70;;;;;;;10.38;100.00;99786.90;434287;1257;140937;-63
2023/08/10 02:53:49;;;;;;;11.00;9.90;;;;;;;10.23;100.00;99788.79;434046;1257;139544;-61
2023/08/10 03:03:55;;;;;;;10.30;9.30;;;;;;;10.04;100.00;99796.75;434858;1253;139340;-62
2023/08/10 03:14:01;;;;;;;10.40;9.40;;;;;;;9.83;100.00;99804.45;434987;1256;139557;-62
2023/08/10 03:24:08;;;;;;;10.10;9.20;;;;;;;-72.91;39.40;39925.22;432604;1254;1002738;-62
2023/08/10 03:34:13;;;;;;;10.40;9.50;;;;;;;-128.00;-1.00;-1.00;431419;1253;1140188;-61
2023/08/10 03:44:19;;;;;;;13.10;11.20;;;;;;;-128.00;-1.00;-1.00;431140;1254;1049196;-61
2023/08/10 03:54:26;;;;;;;13.20;11.70;;;;;;;-128.00;-1.00;-1.00;431425;1251;1047433;-61
2023/08/10 04:04:31;;;;;;;14.30;12.20;;;;;;;-128.00;-1.00;-1.00;431512;1255;1062500;-61
2023/08/10 04:14:37;;;;;;;13.40;12.00;;;;;;;-128.00;-1.00;-1.00;431586;1256;1056563;-63
2023/08/10 04:24:43;;;;;;;13.60;11.10;;;;;;;-128.00;-1.00;-1.00;431853;1253;1059790;-62
2023/08/10 04:34:49;;;;;;;11.00;9.90;;;;;;;-128.00;-1.00;-1.00;431378;1254;1049509;-62
2023/08/10 04:44:55;;;;;;;10.30;8.70;;;;;;;-128.00;-1.00;-1.00;431322;1256;1051722;-62
2023/08/10 04:55:00;;;;;;;8.60;7.50;;;;;;;-128.00;-1.00;-1.00;429674;1253;2431564;-62
2023/08/10 05:05:09;;;;;;;7.20;6.70;;;;;;;-128.00;-1.00;-1.00;431408;1255;1057047;-63
2023/08/10 05:15:16;;;;;;;5.20;4.70;;;;;;;-128.00;-1.00;-1.00;431288;1256;1058744;-62
2023/08/10 05:25:22;;;;;;;5.30;3.40;;;;;;;-128.00;-1.00;-1.00;431261;1254;1047252;-62
2023/08/10 05:35:28;;;;;;;5.40;5.00;;;;;;;-128.00;-1.00;-1.00;431292;1253;1047121;-62
2023/08/10 05:45:34;;;;;;;5.50;4.60;;;;;;;-128.00;-1.00;-1.00;431944;1255;1059966;-62
2023/08/10 05:55:41;;;;;;;4.90;3.80;;;;;;;-128.00;-1.00;-1.00;431404;1256;1056984;-62
2023/08/10 06:05:49;;;;;;;4.10;2.90;;;;;;;-128.00;-1.00;-1.00;432610;1254;1060241;-61
2023/08/10 06:15:55;;;;;;;6.00;2.90;;;;;;;-128.00;-1.00;-1.00;432037;1254;1045141;-67
2023/08/10 06:26:05;;;;;;;1.80;1.70;;;;;;;-128.00;-1.00;-1.00;431305;1253;1047635;-65
2023/08/10 06:36:11;;;;;;;2.10;1.70;;;;;;;-128.00;-1.00;-1.00;431404;1255;1061425;-65
2023/08/10 06:46:17;;;;;;;1.60;1.40;;;;;;;-128.00;-1.00;-1.00;431942;1256;1056102;-67
2023/08/10 06:56:23;;;;;;;2.80;2.30;;;;;;;-128.00;-1.00;-1.00;431786;1254;1058734;-67
2023/08/10 07:06:29;;;;;;;2.60;2.50;;;;;;;-128.00;-1.00;-1.00;431781;1256;1047824;-69
2023/08/10 07:16:34;;;;;;;2.90;2.70;;;;;;;-128.00;-1.00;-1.00;435374;1255;1047512;-69
2023/08/10 07:26:41;;;;;;;5.00;4.30;;;;;;;-128.00;-1.00;-1.00;433139;1255;1060206;-67
2023/08/10 07:36:46;;;;;;;4.00;3.80;;;;;;;-128.00;-1.00;-1.00;431546;1254;1059047;-67
2023/08/10 07:46:52;;;;;;;5.50;4.80;;;;;;;-128.00;-1.00;-1.00;431348;1254;1061393;-66
2023/08/10 07:56:58;;;;;;;5.30;5.00;;;;;;;-128.00;-1.00;-1.00;431281;1256;1044851;-65
2023/08/10 08:07:04;;;;;;;4.30;3.90;;;;;;;-128.00;-1.00;-1.00;431687;1253;1048335;-68
2023/08/10 08:17:10;;;;;;;1.60;1.30;;;;;;;-128.00;-1.00;-1.00;433450;1254;1060426;-66
2023/08/10 08:27:16;;;;;;;2.40;0.90;;;;;;;-128.00;-1.00;-1.00;431779;1256;1055917;-64
2023/08/10 08:37:21;;;;;;;1.60;0.80;;;;;;;-128.00;-1.00;-1.00;431191;1253;1062889;-63
2023/08/10 08:47:27;;;;;;;0.80;0.70;;;;;;;-128.00;-1.00;-1.00;431333;1256;1043825;-62
2023/08/10 09:03:26;;;;;;;1.70;0.80;;;;;;;31.66;23.62;99914.66;420728;1295;600220;-63
2023/08/10 09:13:32;;;;;;;1.60;0.90;;;;;;;30.24;25.02;99911.89;436800;1269;177422;-63
2023/08/10 09:23:38;;;;;;;2.10;0.80;;;;;;;28.90;26.37;99917.79;432056;1266;139414;-63
2023/08/10 09:33:44;;;;;;;1.80;0.90;;;;;;;27.39;27.95;99931.80;434654;1257;138872;-63
2023/08/10 09:43:51;;;;;;;1.00;0.90;;;;;;;27.00;29.32;99936.00;434889;1257;137514;-63
2023/08/10 09:53:57;;;;;;;1.80;0.70;;;;;;;27.22;29.57;99933.01;434811;1257;138001;-62
2023/08/10 10:04:03;;;;;;;3.00;0.80;;;;;;;27.21;29.61;99937.48;434948;1258;138616;-62
2023/08/10 10:25:32;;;;;;;2.80;1.60;;;;;;;26.34;30.09;99930.24;436874;1252;137590;-63
2023/08/10 10:35:37;;;;;;;2.70;0.60;;;;;;;26.29;30.49;99931.77;434365;1253;138732;-62
2023/08/10 10:45:44;;;;;;;2.90;1.10;;;;;;;25.87;30.68;99936.75;433986;1257;139440;-60
2023/08/10 10:55:53;;;;;;;2.10;0.60;;;;;;;25.44;31.03;99936.04;452027;1253;138020;-61
2023/08/10 11:05:59;;;;;;;0.90;0.40;;;;;;;25.44;31.48;99935.14;451835;1254;138917;-61
2023/08/10 11:16:05;;;;;;;1.90;0.70;;;;;;;25.49;31.43;99922.64;451916;1253;138805;-61
2023/08/10 11:26:11;;;;;;;1.60;0.60;;;;;;;25.24;31.40;99921.94;451940;1253;138607;-62
2023/08/10 11:36:17;;;;;;;3.10;1.20;;;;;;;24.90;31.58;99918.34;451860;1253;138047;-63
2023/08/10 11:46:25;;;;;;;21.20;2.30;;;;;;;24.80;32.06;99920.70;451864;1254;138253;-63
2023/08/10 11:56:35;;;;;;;3.50;0.80;;;;;;;24.58;32.74;99916.17;451889;1253;138860;-62
2023/08/10 12:06:44;;;;;;;0.50;0.50;;;;;;;24.66;33.14;99908.66;444461;1257;139134;-65
2023/08/10 12:16:49;;;;;;;6.50;1.10;;;;;;;24.58;33.07;99902.76;434364;1258;140541;-63
2023/08/10 12:26:56;;;;;;;4.00;0.70;;;;;;;24.31;33.00;99894.27;451873;1254;140049;-63
2023/08/10 12:37:02;;;;;;;2.80;1.00;;;;;;;23.69;33.76;99898.49;451975;1253;138079;-62
2023/08/10 12:47:08;;;;;;;2.80;0.50;;;;;;;23.64;34.66;99893.48;451741;1253;138373;-65
2023/08/10 12:57:14;;;;;;;10.70;1.90;;;;;;;23.76;34.61;99891.45;451727;1257;138974;-65
2023/08/10 13:07:20;;;;;;;4.30;0.90;;;;;;;23.90;34.43;99890.05;451934;1253;138370;-63
2023/08/10 13:17:26;;;;;;;1.40;0.60;;;;;;;24.20;33.53;99890.18;451878;1254;138927;-67
2023/08/10 13:27:32;;;;;;;4.30;0.90;;;;;;;24.31;32.64;99885.56;450515;1257;138864;-71
2023/08/10 13:37:38;;;;;;;0.50;0.50;;;;;;;24.32;32.40;99883.44;433870;1259;139776;-67
2023/08/10 13:47:44;;;;;;;0.80;0.70;;;;;;;24.31;32.19;99886.16;451770;1254;139159;-69
2023/08/10 13:57:50;;;;;;;2.80;0.60;;;;;;;24.39;32.00;99882.61;441572;1256;139201;-63
2023/08/10 14:07:55;;;;;;;0.60;0.30;;;;;;;24.52;31.92;99881.23;433750;1258;137635;-64
2023/08/10 14:18:01;;;;;;;3.70;0.80;;;;;;;24.65;31.95;99878.80;433726;1259;139654;-60
2023/08/10 14:28:08;;;;;;;1.80;1.20;;;;;;;24.63;31.51;99875.66;433802;1259;139747;-61
2023/08/10 14:38:14;;;;;;;0.80;0.60;;;;;;;24.61;32.19;99875.50;451651;1258;138111;-59
2023/08/10 14:48:19;;;;;;;7.10;1.40;;;;;;;24.47;32.08;99869.15;451825;1254;137672;-61
2023/08/10 14:58:25;;;;;;;0.90;0.70;;;;;;;24.32;33.14;99867.17;451477;1253;141760;-67
2023/08/10 15:08:31;;;;;;;3.40;1.00;;;;;;;24.18;33.90;99872.86;451585;1254;138671;-66
2023/08/10 15:18:37;;;;;;;3.30;1.50;;;;;;;24.00;34.48;99871.18;451765;1254;139198;-61
2023/08/10 15:28:43;;;;;;;2.80;1.20;;;;;;;23.82;35.00;99873.95;451595;1254;138188;-66
2023/08/10 15:38:49;;;;;;;3.70;1.80;;;;;;;23.70;35.38;99874.47;451755;1254;138773;-61
2023/08/10 15:48:54;;;;;;;1.20;0.70;;;;;;;23.77;35.48;99870.30;451667;1254;137734;-67
2023/08/10 15:59:00;;;;;;;1.10;0.60;;;;;;;23.74;34.62;99876.14;451703;1253;138946;-65
2023/08/10 16:09:06;;;;;;;1.40;0.50;;;;;;;23.53;33.82;99876.02;451605;1254;138265;-60
2023/08/10 16:19:12;;;;;;;1.30;0.80;;;;;;;23.33;34.01;99875.64;451750;1254;137929;-59
2023/08/10 16:29:19;;;;;;;2.20;1.00;;;;;;;22.90;34.23;99879.14;451705;1254;139171;-60
2023/08/10 16:39:25;;;;;;;2.10;0.60;;;;;;;22.51;34.47;99875.75;451437;1254;140785;-60
2023/08/10 16:49:31;;;;;;;2.30;1.20;;;;;;;22.15;34.55;99878.77;451709;1254;137825;-60
2023/08/10 16:59:37;;;;;;;3.30;1.40;;;;;;;21.78;35.20;99887.13;451650;1254;139841;-60
2023/08/10 17:09:43;;;;;;;7.30;2.00;;;;;;;21.44;36.38;99894.17;451558;1254;138206;-60
2023/08/10 17:19:48;;;;;;;2.20;1.50;;;;;;;21.31;37.40;99899.83;451814;1254;138263;-61
2023/08/10 17:29:54;;;;;;;13.60;1.80;;;;;;;20.92;37.81;99901.52;451611;1253;138843;-60
2023/08/10 17:40:00;;;;;;;6.70;1.30;;;;;;;20.44;38.76;99910.28;451484;1253;140201;-60
2023/08/10 17:50:07;;;;;;;7.30;1.80;;;;;;;19.94;39.94;99922.63;451751;1253;139920;-65
2023/08/10 18:00:16;;;;;;;38.10;5.10;;;;;;;19.46;41.44;99929.69;451601;1254;138264;-61
2023/08/10 18:10:21;;;;;;;5.40;2.00;;;;;;;18.95;43.26;99930.17;451397;1254;139202;-62
2023/08/10 18:20:27;;;;;;;10.30;4.10;;;;;;;18.47;44.99;99941.38;451448;1254;137616;-61
2023/08/10 18:30:33;;;;;;;15.20;10.20;;;;;;;18.10;45.99;99944.46;451637;1254;139101;-61
2023/08/10 18:40:39;;;;;;;17.70;8.60;;;;;;;17.73;48.00;99954.61;451398;1253;139201;-61
2023/08/10 18:50:45;;;;;;;20.50;6.70;;;;;;;17.48;50.00;99968.85;451531;1253;138887;-60
2023/08/10 19:00:53;;;;;;;7.40;4.10;;;;;;;17.29;51.21;99975.45;451751;1253;137899;-61
2023/08/10 19:10:58;;;;;;;6.00;3.20;;;;;;;17.04;51.30;99976.30;451520;1253;140391;-61
2023/08/10 19:21:05;;;;;;;7.70;4.40;;;;;;;16.79;52.42;99982.77;446489;1254;139863;-62
2023/08/10 19:31:11;;;;;;;20.30;10.80;;;;;;;16.46;53.58;99989.21;434266;1257;138132;-60
2023/08/10 19:41:17;;;;;;;27.60;14.40;;;;;;;16.03;55.04;99997.27;434449;1254;138924;-59
2023/08/10 19:51:23;;;;;;;20.60;10.10;;;;;;;15.58;55.90;100002.34;434142;1257;140506;-61
2023/08/10 20:01:29;;;;;;;57.30;30.50;;;;;;;15.25;56.40;100009.31;451719;1253;140831;-61
2023/08/10 20:11:35;;;;;;;28.90;20.20;;;;;;;15.01;57.43;100011.69;451645;1253;139232;-61
2023/08/10 20:21:41;;;;;;;21.80;15.30;;;;;;;14.74;58.64;100009.61;451569;1253;140350;-61
2023/08/10 20:31:47;;;;;;;27.00;19.20;;;;;;;14.47;60.12;100014.92;451712;1253;139658;-60
2023/08/10 20:41:53;;;;;;;29.20;16.80;;;;;;;14.22;60.82;100013.70;451578;1253;140856;-64
2023/08/10 20:51:59;;;;;;;23.10;17.60;;;;;;;13.94;61.80;100009.91;451540;1253;196895;-63
2023/08/10 21:02:05;;;;;;;20.70;14.40;;;;;;;13.69;62.68;100006.57;451740;1253;139543;-64
2023/08/10 21:12:11;;;;;;;15.80;9.30;;;;;;;13.45;63.44;100011.16;451371;1253;333743;-62
2023/08/10 21:22:16;;;;;;;18.50;10.00;;;;;;;13.22;64.23;100011.86;451699;1253;139508;-63
2023/08/10 21:32:22;;;;;;;11.60;8.80;;;;;;;13.02;65.30;100009.02;451666;1253;139282;-61
2023/08/10 21:42:28;;;;;;;9.90;7.10;;;;;;;12.80;65.87;100009.37;441681;1253;139633;-61
2023/08/10 21:52:33;;;;;;;13.50;6.60;;;;;;;12.58;66.53;100012.59;434392;1254;139812;-61
2023/08/10 22:02:40;;;;;;;8.10;6.50;;;;;;;12.35;67.09;100015.13;434124;1254;140598;-62
2023/08/10 22:12:46;;;;;;;13.70;7.00;;;;;;;12.09;67.69;100013.21;434239;1257;139511;-62
2023/08/10 22:22:51;;;;;;;9.50;5.90;;;;;;;11.84;68.51;100018.32;434303;1253;140026;-63
2023/08/10 22:33:09;;;;;;;7.00;5.90;;;;;;;11.63;69.31;100017.66;434255;1257;139657;-62
2023/08/10 22:43:15;;;;;;;9.20;5.70;;;;;;;11.46;70.27;100021.11;434050;1257;139872;-64
2023/08/10 22:53:21;;;;;;;9.60;5.90;;;;;;;11.30;70.72;100027.73;433986;1253;140694;-63
2023/08/10 23:03:27;;;;;;;6.90;4.90;;;;;;;11.12;71.14;100021.06;433969;1257;139524;-61
2023/08/10 23:13:33;;;;;;;7.70;4.20;;;;;;;10.96;71.55;100020.74;434251;1257;139001;-62
2023/08/10 23:23:39;;;;;;;5.30;4.80;;;;;;;10.81;72.21;100026.89;451759;1253;140726;-62
2023/08/10 23:33:45;;;;;;;5.40;4.40;;;;;;;10.69;72.93;100028.82;451607;1253;139918;-62
2023/08/10 23:43:51;;;;;;;7.70;4.80;;;;;;;10.61;73.38;100023.44;451820;1253;139858;-62
2023/08/10 23:53:57;;;;;;;6.80;4.10;;;;;;;10.51;73.70;100020.50;451678;1253;139681;-62
